White Bluff, TN (37187)

3:41 PM CST on February 23, 2017 (GMT -0600)
White Bluff | | Change Station

Elev 823 ft 36.11 °N, 87.21 °W | Updated 0 second ago

Mostly Cloudy
Mostly Cloudy
73.4 °F
Feels Like 74 °F
N
2.2
Wind Variable Wind from SSE
Gusts 9.2 mph

Today
High -- | Low -- °F
--% Chance of Precip.
Yesterday
High -- | Low -- °F
Precip. -- in
Pressure 29.76 in
Visibility 10.0 miles
Clouds Mostly Cloudy 5000 ft
Mostly Cloudy 25000 ft
Heat Index 74 °F
Dew Point 14 °F
Humidity 10%
Rainfall 0.00 in
Snow Depth Not available.
6:26 AM 5:38 PM
Waning Crescent, 8% visible
METAR KBNA 232053Z 19011KT 10SM BKN050 BKN250 23/12 A2977 RMK AO2 SLP077 T02330122 56018
Pressure 29.76 in
Visibility 10.0 miles
Clouds Mostly Cloudy 5000 ft
Mostly Cloudy 25000 ft
Heat Index 74 °F
Dew Point 14 °F
Humidity 10%
Rainfall 0.00 in
Snow Depth Not available.
6:26 AM 5:38 PM
Waning Crescent, 8% visible
METAR KBNA 232053Z 19011KT 10SM BKN050 BKN250 23/12 A2977 RMK AO2 SLP077 T02330122 56018

Get Your Daily Forecast Email!

Thanks for signing up!

Be on the lookout for a verification email in your inbox.

You'll start receiving the daily forecast at 8 AM.

×

10-Day Weather Forecast

Almanac

Astronomy

Feb. 23, 2017 Rise Set
Actual Time
Civil Twilight
Nautical Twilight
Astronomical Twilight
Moon
Length of Visible Light
Length of Day
Tomorrow will be .
, % of the Moon is Illuminated

Today's Extremes

State Highs State Lows

Community

WunderPhotos

Upload Photos

1,962,540 photos uploaded!

WunderBlog® & News

Nearby

Air Quality

  Air Quality AQ Index Pollutant
Not available.

Snow Depth

Station Depth Elevation

Earthquake Activity

City Distance Mag. Time & Date
Minimum magnitude displayed is 2.5.

Coastal Water Temperatures

Place Temperature

Stations

Nearby Weather Stations

Station Location Temp. Windchill Dew Point Humidity Wind Precip. Elev Updated Type
                   

Watches & Warnings

There are currently no watches in effect.